createdAt,value
2018-03-26T08:00:13.630Z,99.99
2018-03-26T08:01:13.573Z,99.99
2018-03-26T08:02:13.536Z,99.99
2018-03-26T08:03:13.521Z,99.99
2018-03-26T08:04:13.495Z,99.99
2018-03-26T08:05:13.473Z,99.99
2018-03-26T08:06:13.435Z,99.99
2018-03-26T08:07:13.412Z,99.99
2018-03-26T08:08:13.380Z,99.99
2018-03-26T08:09:13.355Z,99.99
2018-03-26T08:10:13.343Z,99.99
2018-03-26T08:11:13.313Z,99.99
2018-03-26T08:12:13.282Z,99.99
2018-03-26T08:13:13.284Z,99.99
2018-03-26T08:14:13.232Z,99.99
2018-03-26T08:15:13.201Z,99.99
2018-03-26T08:16:13.178Z,99.99
2018-03-26T08:17:13.206Z,99.99
2018-03-26T08:18:13.157Z,99.99
2018-03-26T08:19:13.105Z,99.26
2018-03-26T08:20:13.132Z,99.82
2018-03-26T08:21:13.057Z,99.99
2018-03-26T08:22:13.042Z,99.26
2018-03-26T08:23:13.006Z,99.06
2018-03-26T08:24:13.002Z,99.44
2018-03-26T08:25:12.958Z,99.26
2018-03-26T08:26:12.946Z,99.06
2018-03-26T08:27:12.910Z,99.11
2018-03-26T08:28:12.903Z,98.26
2018-03-26T08:29:12.861Z,98.16
2018-03-26T08:30:12.838Z,97.60
2018-03-26T08:31:12.813Z,97.22
2018-03-26T08:32:12.787Z,97.22
2018-03-26T08:33:12.763Z,96.74
2018-03-26T08:34:12.744Z,96.74
2018-03-26T08:35:12.720Z,96.83
2018-03-26T08:36:12.693Z,96.55
2018-03-26T08:37:12.673Z,96.83
2018-03-26T08:38:12.647Z,96.74
2018-03-26T08:39:12.636Z,95.65
2018-03-26T08:40:12.600Z,95.46
2018-03-26T08:41:12.586Z,94.32
2018-03-26T08:42:12.581Z,95.08
2018-03-26T08:43:12.532Z,94.70
2018-03-26T08:44:12.508Z,94.70
2018-03-26T08:45:12.481Z,94.03
2018-03-26T08:46:12.463Z,94.42
2018-03-26T08:47:12.440Z,93.94
2018-03-26T08:48:12.418Z,94.23
2018-03-26T08:49:12.392Z,94.23
2018-03-26T08:50:12.445Z,94.23
2018-03-26T08:51:12.355Z,94.03
2018-03-26T08:52:12.326Z,93.94
2018-03-26T08:53:12.304Z,94.13
2018-03-26T08:54:12.280Z,94.23
2018-03-26T08:55:12.259Z,94.32
2018-03-26T08:56:12.233Z,93.84
2018-03-26T08:57:12.214Z,94.79
2018-03-26T08:58:12.202Z,94.98
2018-03-26T08:59:12.178Z,94.89
2018-03-26T09:00:12.147Z,94.13
2018-03-26T09:01:12.124Z,94.23
2018-03-26T09:02:12.102Z,93.89
2018-03-26T09:03:12.079Z,92.66
2018-03-26T09:04:12.060Z,91.89
2018-03-26T09:05:12.055Z,91.61
2018-03-26T09:06:12.074Z,92.08
2018-03-26T09:07:11.988Z,91.71
2018-03-26T09:08:11.968Z,91.28
2018-03-26T09:09:11.958Z,90.89
2018-03-26T09:10:11.926Z,90.99
2018-03-26T09:11:11.903Z,89.61
2018-03-26T09:12:11.880Z,88.56
2018-03-26T09:13:11.912Z,88.37
2018-03-26T09:14:11.839Z,88.46
2018-03-26T09:15:11.818Z,88.28
2018-03-26T09:16:11.804Z,87.99
2018-03-26T09:17:11.771Z,87.32
2018-03-26T09:18:11.762Z,87.04
2018-03-26T09:19:11.732Z,85.85
2018-03-26T09:20:11.708Z,85.99
2018-03-26T09:21:11.688Z,86.09
2018-03-26T09:22:11.682Z,85.47
2018-03-26T09:23:11.675Z,84.65
2018-03-26T09:24:11.628Z,83.80
2018-03-26T09:25:11.603Z,82.56
2018-03-26T09:26:11.581Z,82.56
2018-03-26T09:27:11.565Z,82.08
2018-03-26T09:28:11.543Z,80.88
2018-03-26T09:29:11.530Z,79.83
2018-03-26T09:30:11.521Z,79.36
2018-03-26T09:31:11.480Z,78.88
2018-03-26T09:32:11.459Z,78.54
2018-03-26T09:33:11.452Z,78.06
2018-03-26T09:34:11.419Z,77.40
2018-03-26T09:35:11.401Z,76.35
2018-03-26T09:36:11.378Z,75.43
2018-03-26T09:37:11.358Z,74.77
2018-03-26T09:38:11.347Z,73.94
2018-03-26T09:39:11.322Z,72.71
2018-03-26T09:40:11.302Z,72.99
2018-03-26T09:41:11.311Z,72.32
2018-03-26T09:42:11.264Z,72.13
2018-03-26T09:43:11.257Z,71.37
2018-03-26T09:44:11.228Z,71.21
2018-03-26T09:45:11.212Z,69.84
2018-03-26T09:46:11.194Z,70.03
2018-03-26T09:47:11.172Z,69.74
2018-03-26T09:48:11.158Z,69.78
2018-03-26T09:49:11.143Z,70.16
2018-03-26T09:50:11.129Z,69.40
2018-03-26T09:51:11.103Z,69.21
2018-03-26T09:52:11.081Z,69.02
2018-03-26T09:53:11.069Z,68.35
2018-03-26T09:54:11.049Z,68.06
2018-03-26T09:55:11.033Z,67.30
2018-03-26T09:56:11.014Z,67.21
2018-03-26T09:57:11.010Z,66.82
2018-03-26T09:58:10.982Z,66.95
2018-03-26T09:59:10.974Z,66.00
2018-03-26T10:00:10.958Z,66.66
2018-03-26T10:01:10.935Z,65.61
2018-03-26T10:02:10.919Z,65.42
2018-03-26T10:03:10.908Z,65.90
2018-03-26T10:04:10.879Z,65.23
2018-03-26T10:05:10.875Z,65.04
2018-03-26T10:06:10.846Z,65.52
2018-03-26T10:07:10.829Z,64.37
2018-03-26T10:08:10.825Z,65.10
2018-03-26T10:09:10.797Z,65.71
2018-03-26T10:10:10.780Z,65.96
2018-03-26T10:11:10.762Z,66.38
2018-03-26T10:12:10.751Z,65.52
2018-03-26T10:13:10.736Z,65.23
2018-03-26T10:14:10.747Z,63.83
2018-03-26T10:15:10.710Z,62.97
2018-03-26T10:16:10.683Z,62.04
2018-03-26T10:17:10.685Z,61.66
2018-03-26T10:18:10.675Z,59.94
2018-03-26T10:19:10.634Z,60.45
2018-03-26T10:20:10.626Z,60.26
2018-03-26T10:21:10.601Z,59.11
2018-03-26T10:22:10.594Z,59.05
2018-03-26T10:23:10.584Z,58.18
2018-03-26T10:24:10.553Z,57.73
2018-03-26T10:25:10.533Z,56.59
2018-03-26T10:26:10.520Z,55.73
2018-03-26T10:27:10.510Z,55.34
2018-03-26T10:28:10.499Z,54.38
2018-03-26T10:29:10.471Z,54.57
2018-03-26T10:30:10.462Z,53.91
2018-03-26T10:31:10.459Z,54.86
2018-03-26T10:32:10.435Z,54.86
2018-03-26T10:33:10.409Z,55.41
2018-03-26T10:34:10.404Z,56.46
2018-03-26T10:35:10.398Z,55.88
2018-03-26T10:36:10.372Z,55.79
2018-03-26T10:37:10.346Z,55.53
2018-03-26T10:38:10.344Z,55.51
2018-03-26T10:39:10.320Z,55.73
2018-03-26T10:40:10.317Z,55.63
2018-03-26T10:41:10.298Z,55.53
2018-03-26T10:42:10.271Z,55.18
2018-03-26T10:43:10.266Z,54.22
2018-03-26T10:44:10.251Z,53.74
2018-03-26T10:45:10.238Z,53.36
2018-03-26T10:46:10.215Z,53.07
2018-03-26T10:47:10.203Z,52.20
2018-03-26T10:48:10.193Z,52.18
2018-03-26T10:49:10.160Z,53.81
2018-03-26T10:50:10.157Z,52.59
2018-03-26T10:51:10.197Z,52.66
2018-03-26T10:52:10.129Z,53.62
2018-03-26T10:53:10.105Z,53.71
2018-03-26T10:54:10.103Z,53.07
2018-03-26T10:55:10.072Z,52.78
2018-03-26T10:56:10.068Z,50.99
2018-03-26T10:57:10.052Z,50.89
2018-03-26T10:58:10.026Z,51.01
2018-03-26T10:59:10.011Z,50.63
2018-03-26T11:00:10.021Z,49.96
2018-03-26T11:01:09.984Z,50.34
2018-03-26T11:02:09.970Z,49.36
2018-03-26T11:03:09.954Z,49.74
2018-03-26T11:04:09.946Z,50.05
2018-03-26T11:05:09.924Z,49.84
2018-03-26T11:06:09.913Z,50.34
2018-03-26T11:07:09.901Z,50.53
2018-03-26T11:08:09.899Z,49.29
2018-03-26T11:09:09.891Z,49.67
2018-03-26T11:10:09.854Z,49.60
2018-03-26T11:11:09.840Z,49.24
2018-03-26T11:12:09.872Z,48.76
2018-03-26T11:13:09.835Z,47.61
2018-03-26T11:14:09.798Z,47.49
2018-03-26T11:15:09.791Z,47.32
2018-03-26T11:16:09.772Z,47.22
2018-03-26T11:17:09.759Z,47.13
2018-03-26T11:18:09.744Z,47.82
2018-03-26T11:19:09.739Z,45.61
2018-03-26T11:20:09.717Z,46.58
2018-03-26T11:21:09.713Z,45.71
2018-03-26T11:22:09.693Z,43.88
2018-03-26T11:23:09.685Z,44.46
2018-03-26T11:24:09.662Z,44.84
2018-03-26T11:25:09.648Z,44.65
2018-03-26T11:26:09.645Z,43.98
2018-03-26T11:27:09.623Z,45.35
2018-03-26T11:28:09.627Z,44.68
2018-03-26T11:29:09.614Z,45.06
2018-03-26T11:30:09.627Z,45.25
2018-03-26T11:31:09.572Z,44.79
2018-03-26T11:32:09.575Z,44.10
2018-03-26T11:33:09.577Z,44.60
2018-03-26T11:34:09.549Z,44.41
2018-03-26T11:35:09.539Z,43.93
2018-03-26T11:36:09.543Z,43.84
2018-03-26T11:37:09.494Z,43.35
2018-03-26T11:38:09.479Z,43.64
2018-03-26T11:39:09.467Z,43.74
2018-03-26T11:40:09.465Z,43.26
2018-03-26T11:41:09.440Z,43.35
2018-03-26T11:42:09.429Z,43.74
2018-03-26T11:43:09.417Z,43.54
2018-03-26T11:44:09.406Z,44.10
2018-03-26T11:45:09.402Z,43.84
2018-03-26T11:46:09.385Z,43.07
2018-03-26T11:47:09.376Z,43.23
2018-03-26T11:48:09.353Z,42.18
2018-03-26T11:49:09.377Z,42.06
2018-03-26T11:50:09.328Z,44.75
2018-03-26T11:51:09.315Z,45.04
2018-03-26T11:52:09.314Z,44.84
2018-03-26T11:53:09.310Z,43.81
2018-03-26T11:54:09.279Z,43.60
2018-03-26T11:55:09.300Z,43.98
2018-03-26T11:56:09.251Z,44.10
2018-03-26T11:57:09.240Z,43.43
2018-03-26T11:58:09.228Z,42.85
2018-03-26T11:59:09.241Z,42.58
2018-03-26T12:00:09.220Z,42.20
2018-03-26T12:01:09.189Z,42.66
2018-03-26T12:02:09.199Z,42.77
2018-03-26T12:03:09.164Z,42.76
2018-03-26T12:04:09.158Z,45.04
2018-03-26T12:05:09.140Z,44.75
2018-03-26T12:06:09.139Z,44.75
2018-03-26T12:07:09.125Z,45.32
2018-03-26T12:08:09.103Z,43.77
2018-03-26T12:09:09.092Z,43.29
2018-03-26T12:10:09.079Z,44.46
2018-03-26T12:11:09.068Z,44.17
2018-03-26T12:12:09.063Z,44.65
2018-03-26T12:13:09.093Z,44.38
2018-03-26T12:14:09.039Z,43.52
2018-03-26T12:15:09.015Z,43.74
2018-03-26T12:16:09.003Z,43.54
2018-03-26T12:17:08.990Z,43.37
2018-03-26T12:18:08.987Z,42.72
2018-03-26T12:19:08.976Z,40.70
2018-03-26T12:20:08.962Z,40.05
2018-03-26T12:21:08.940Z,40.14
2018-03-26T12:22:08.932Z,39.56
2018-03-26T12:23:08.927Z,39.74
2018-03-26T12:24:08.906Z,40.39
2018-03-26T12:25:08.912Z,40.58
2018-03-26T12:26:08.904Z,40.80
2018-03-26T12:27:08.871Z,41.43
2018-03-26T12:28:08.856Z,41.99
2018-03-26T12:29:08.859Z,42.73
2018-03-26T12:30:08.839Z,44.34
2018-03-26T12:31:08.834Z,43.79
2018-03-26T12:32:08.817Z,43.02
2018-03-26T12:33:08.797Z,43.02
2018-03-26T12:34:08.789Z,42.83
2018-03-26T12:35:08.777Z,42.64
2018-03-26T12:36:08.760Z,43.16
2018-03-26T12:37:08.749Z,41.45
2018-03-26T12:38:08.737Z,41.45
2018-03-26T12:39:08.725Z,38.49
2018-03-26T12:40:08.724Z,37.91
2018-03-26T12:41:08.758Z,36.95
2018-03-26T12:42:08.700Z,36.95
2018-03-26T12:43:08.682Z,38.56
2018-03-26T12:44:08.682Z,38.56
2018-03-26T12:45:08.663Z,39.62
2018-03-26T12:46:08.652Z,40.39
2018-03-26T12:47:08.634Z,40.31
2018-03-26T12:48:08.635Z,38.31
2018-03-26T12:49:08.613Z,38.33
2018-03-26T12:50:08.595Z,37.96
2018-03-26T12:51:08.586Z,36.91
2018-03-26T12:52:08.583Z,36.04
2018-03-26T12:53:08.567Z,35.65
2018-03-26T12:54:08.552Z,35.28
2018-03-26T12:55:08.544Z,34.70
2018-03-26T12:56:08.534Z,35.27
2018-03-26T12:57:08.533Z,35.46
2018-03-26T12:58:08.510Z,36.61
2018-03-26T12:59:08.513Z,35.27
2018-03-26T13:00:08.512Z,35.89
2018-03-26T13:01:08.492Z,36.87
2018-03-26T13:02:08.469Z,36.10
2018-03-26T13:03:08.471Z,36.31
2018-03-26T13:04:08.451Z,35.71
2018-03-26T13:05:08.442Z,35.89
2018-03-26T13:06:08.429Z,36.87
2018-03-26T13:07:08.420Z,37.04
2018-03-26T13:08:08.418Z,37.14
2018-03-26T13:09:08.410Z,37.83
2018-03-26T13:10:08.388Z,37.60
2018-03-26T13:11:08.389Z,38.59
2018-03-26T13:12:08.366Z,37.35
2018-03-26T13:13:08.367Z,37.74
2018-03-26T13:14:08.346Z,37.26
2018-03-26T13:15:08.337Z,36.91
2018-03-26T13:16:08.324Z,36.23
2018-03-26T13:17:08.322Z,35.35
2018-03-26T13:18:08.305Z,36.21
2018-03-26T13:19:08.305Z,36.10
2018-03-26T13:20:08.283Z,36.62
2018-03-26T13:21:08.272Z,38.70
2018-03-26T13:22:08.266Z,40.91
2018-03-26T13:23:08.262Z,41.63
2018-03-26T13:24:08.243Z,42.52
2018-03-26T13:25:08.228Z,42.73
2018-03-26T13:26:08.234Z,42.08
2018-03-26T13:27:08.216Z,41.62
2018-03-26T13:28:08.232Z,40.66
2018-03-26T13:29:08.195Z,40.39
2018-03-26T13:30:08.169Z,39.79
2018-03-26T13:31:08.157Z,40.66
2018-03-26T13:32:08.149Z,41.26
2018-03-26T13:33:08.135Z,40.78
2018-03-26T13:34:08.129Z,39.54
2018-03-26T13:35:08.111Z,39.89
2018-03-26T13:36:08.100Z,41.00
2018-03-26T13:37:08.100Z,43.19
2018-03-26T13:38:08.076Z,44.44
2018-03-26T13:39:08.069Z,43.88
2018-03-26T13:40:08.053Z,43.23
2018-03-26T13:41:08.039Z,42.68
2018-03-26T13:42:08.037Z,41.33
2018-03-26T13:43:08.012Z,40.72
2018-03-26T13:44:08.015Z,41.66
2018-03-26T13:45:07.992Z,42.71
2018-03-26T13:46:07.985Z,42.66
2018-03-26T13:47:07.967Z,41.96
2018-03-26T13:48:07.965Z,41.31
2018-03-26T13:49:07.944Z,42.71
2018-03-26T13:50:07.969Z,43.73
2018-03-26T13:51:07.930Z,43.91
2018-03-26T13:52:07.908Z,43.91
2018-03-26T13:53:07.896Z,44.30
2018-03-26T13:54:07.915Z,45.59
2018-03-26T13:55:07.882Z,46.00
2018-03-26T13:56:07.859Z,47.08
2018-03-26T13:57:07.848Z,45.47
2018-03-26T13:58:07.833Z,45.11
2018-03-26T13:59:07.830Z,45.57
2018-03-26T14:00:07.806Z,43.98
2018-03-26T14:01:07.807Z,42.94
2018-03-26T14:02:07.799Z,40.66
2018-03-26T14:03:07.781Z,40.68
2018-03-26T14:04:07.755Z,39.64
2018-03-26T14:05:07.755Z,39.41
2018-03-26T14:06:07.739Z,40.73
2018-03-26T14:07:07.722Z,41.79
2018-03-26T14:08:07.724Z,42.76
2018-03-26T14:09:07.695Z,42.08
2018-03-26T14:10:07.702Z,41.72
2018-03-26T14:11:07.675Z,40.49
2018-03-26T14:12:07.696Z,40.58
2018-03-26T14:13:07.663Z,40.18
2018-03-26T14:14:07.648Z,40.08
2018-03-26T14:15:07.634Z,39.53
2018-03-26T14:16:07.632Z,40.01
2018-03-26T14:17:07.635Z,40.49
2018-03-26T14:18:07.601Z,40.01
2018-03-26T14:19:07.597Z,40.11
2018-03-26T14:20:07.582Z,40.01
2018-03-26T14:21:07.570Z,40.41
2018-03-26T14:22:07.559Z,39.64
2018-03-26T14:23:07.550Z,38.64
2018-03-26T14:24:07.558Z,39.41
2018-03-26T14:25:07.543Z,40.47
2018-03-26T14:26:07.521Z,39.99
2018-03-26T14:27:07.543Z,40.06
2018-03-26T14:28:07.502Z,40.76
2018-03-26T14:29:07.503Z,40.66
2018-03-26T14:30:07.487Z,39.22
2018-03-26T14:31:07.475Z,39.51
2018-03-26T14:32:07.470Z,39.03
2018-03-26T14:33:07.467Z,39.12
2018-03-26T14:34:07.459Z,39.97
2018-03-26T14:35:07.493Z,40.55
2018-03-26T14:36:07.430Z,40.55
2018-03-26T14:37:07.419Z,40.45
2018-03-26T14:38:07.417Z,40.73
2018-03-26T14:39:07.403Z,41.02
2018-03-26T14:40:07.394Z,40.55
2018-03-26T14:41:07.385Z,41.27
2018-03-26T14:42:07.377Z,42.61
2018-03-26T14:43:07.382Z,42.64
2018-03-26T14:44:07.357Z,42.44
2018-03-26T14:45:07.359Z,41.96
2018-03-26T14:46:07.350Z,42.06
2018-03-26T14:47:07.332Z,41.87
2018-03-26T14:48:07.330Z,41.67
2018-03-26T14:49:07.323Z,41.00
2018-03-26T14:50:07.305Z,41.12
2018-03-26T14:51:07.300Z,41.10
2018-03-26T14:52:07.298Z,41.58
2018-03-26T14:53:07.281Z,41.29
2018-03-26T14:54:07.266Z,40.91
2018-03-26T14:55:07.270Z,42.25
2018-03-26T14:56:07.262Z,41.77
2018-03-26T14:57:07.248Z,41.77
2018-03-26T14:58:07.232Z,41.56
2018-03-26T14:59:07.224Z,42.69
2018-03-26T15:00:07.224Z,42.50
2018-03-26T15:01:07.218Z,43.65
2018-03-26T15:02:07.205Z,43.63
2018-03-26T15:03:07.189Z,44.13
2018-03-26T15:04:07.182Z,43.94
2018-03-26T15:05:07.180Z,44.03
2018-03-26T15:06:07.175Z,43.94
2018-03-26T15:07:07.154Z,43.74
2018-03-26T15:08:07.146Z,43.07
2018-03-26T15:09:07.138Z,43.00
2018-03-26T15:10:07.133Z,42.52
2018-03-26T15:11:07.133Z,42.04
2018-03-26T15:12:07.123Z,42.23
2018-03-26T15:13:07.110Z,41.58
2018-03-26T15:14:07.093Z,41.94
2018-03-26T15:15:07.084Z,42.69
2018-03-26T15:16:07.083Z,43.84
2018-03-26T15:17:07.101Z,43.74
2018-03-26T15:18:07.060Z,43.91
2018-03-26T15:19:07.067Z,45.04
2018-03-26T15:20:07.075Z,45.07
2018-03-26T15:21:07.035Z,44.76
2018-03-26T15:22:07.024Z,44.76
2018-03-26T15:23:07.015Z,45.23
2018-03-26T15:24:07.000Z,44.87
2018-03-26T15:25:07.003Z,44.30
2018-03-26T15:26:06.979Z,44.87
2018-03-26T15:27:06.969Z,45.16
2018-03-26T15:28:06.970Z,45.07
2018-03-26T15:29:06.954Z,44.78
2018-03-26T15:30:06.940Z,44.68
2018-03-26T15:31:06.941Z,44.59
2018-03-26T15:32:06.922Z,44.42
2018-03-26T15:33:06.924Z,43.84
2018-03-26T15:34:06.901Z,43.74
2018-03-26T15:35:06.905Z,42.79
2018-03-26T15:36:06.892Z,42.69
2018-03-26T15:37:06.876Z,43.36
2018-03-26T15:38:06.865Z,43.05
2018-03-26T15:39:06.863Z,43.34
2018-03-26T15:40:06.842Z,43.32
2018-03-26T15:41:06.833Z,43.51
2018-03-26T15:42:06.830Z,44.37
2018-03-26T15:43:06.818Z,45.14
2018-03-26T15:44:06.809Z,45.31
2018-03-26T15:45:06.810Z,45.89
2018-03-26T15:46:06.798Z,46.65
2018-03-26T15:47:06.790Z,45.40
2018-03-26T15:48:06.768Z,46.26
2018-03-26T15:49:06.755Z,46.46
2018-03-26T15:50:06.743Z,47.32
2018-03-26T15:51:06.731Z,47.30
2018-03-26T15:52:06.727Z,46.91
2018-03-26T15:53:06.712Z,47.42
2018-03-26T15:54:06.743Z,48.38
2018-03-26T15:55:06.706Z,46.75
2018-03-26T15:56:06.689Z,47.30
2018-03-26T15:57:06.678Z,47.20
2018-03-26T15:58:06.662Z,47.58
2018-03-26T15:59:06.647Z,47.49
2018-03-26T16:00:06.638Z,47.01
2018-03-26T16:01:06.624Z,47.39
2018-03-26T16:02:06.614Z,48.71
2018-03-26T16:03:06.601Z,48.33
2018-03-26T16:04:06.602Z,49.45
2018-03-26T16:05:06.595Z,49.74
2018-03-26T16:06:06.565Z,50.00
2018-03-26T16:07:06.568Z,50.57
2018-03-26T16:08:06.545Z,50.67
2018-03-26T16:09:06.559Z,50.74
2018-03-26T16:10:06.530Z,51.21
2018-03-26T16:11:06.503Z,50.71
2018-03-26T16:12:06.488Z,52.34
2018-03-26T16:13:06.482Z,52.69
2018-03-26T16:14:06.459Z,54.03
2018-03-26T16:15:06.466Z,54.00
2018-03-26T16:16:06.431Z,55.05
2018-03-26T16:17:06.416Z,55.72
2018-03-26T16:18:06.408Z,56.17
2018-03-26T16:19:06.386Z,56.46
2018-03-26T16:20:06.363Z,57.60
2018-03-26T16:21:06.356Z,58.65
2018-03-26T16:22:06.347Z,58.62
2018-03-26T16:23:06.312Z,60.14
2018-03-26T16:24:06.294Z,60.24
2018-03-26T16:25:06.277Z,60.91
2018-03-26T16:26:06.271Z,62.34
2018-03-26T16:27:06.254Z,61.67
2018-03-26T16:28:06.222Z,62.24
2018-03-26T16:29:06.208Z,62.34
2018-03-26T16:30:06.188Z,61.86
2018-03-26T16:31:06.171Z,62.62
2018-03-26T16:32:06.166Z,61.96
2018-03-26T16:33:06.141Z,62.24
2018-03-26T16:34:06.110Z,62.15
2018-03-26T16:35:06.092Z,62.72
2018-03-26T16:36:06.092Z,62.24
2018-03-26T16:37:06.068Z,62.62
2018-03-26T16:38:06.039Z,62.81
2018-03-26T16:39:06.018Z,63.00
2018-03-26T16:40:06.004Z,63.39
2018-03-26T16:41:05.980Z,64.15
2018-03-26T16:42:05.972Z,65.45
2018-03-26T16:43:05.941Z,65.55
2018-03-26T16:44:05.923Z,66.02
2018-03-26T16:45:05.904Z,65.92
2018-03-26T16:46:05.901Z,66.11
2018-03-26T16:47:05.876Z,66.69
2018-03-26T16:48:05.842Z,67.26
2018-03-26T16:49:05.830Z,67.16
2018-03-26T16:50:05.821Z,67.35
2018-03-26T16:51:05.794Z,67.55
2018-03-26T16:52:05.777Z,68.30
2018-03-26T16:53:05.741Z,68.46
2018-03-26T16:54:05.728Z,68.18
2018-03-26T16:55:05.702Z,68.84
2018-03-26T16:56:05.682Z,69.32
2018-03-26T16:57:05.662Z,69.23
2018-03-26T16:58:05.652Z,69.42
2018-03-26T16:59:05.642Z,69.04
2018-03-26T17:00:05.616Z,69.42
2018-03-26T17:01:05.590Z,70.37
2018-03-26T17:02:05.559Z,70.84
2018-03-26T17:03:05.549Z,71.03
2018-03-26T17:04:05.517Z,71.22
2018-03-26T17:05:05.497Z,70.47
2018-03-26T17:06:05.519Z,70.94
2018-03-26T17:07:05.468Z,70.84
2018-03-26T17:08:05.439Z,70.94
2018-03-26T17:09:05.414Z,70.75
2018-03-26T17:10:05.390Z,70.75
2018-03-26T17:11:05.383Z,70.75
2018-03-26T17:12:05.355Z,71.13
2018-03-26T17:13:05.338Z,71.98
2018-03-26T17:14:05.306Z,71.80
2018-03-26T17:15:05.289Z,71.70
2018-03-26T17:16:05.268Z,71.70
2018-03-26T17:17:05.247Z,72.37
2018-03-26T17:18:05.240Z,72.14
2018-03-26T17:19:05.232Z,72.33
2018-03-26T17:20:05.181Z,72.62
2018-03-26T17:21:05.166Z,72.42
2018-03-26T17:22:05.168Z,72.52
2018-03-26T17:23:05.117Z,73.38
2018-03-26T17:24:05.127Z,73.85
2018-03-26T17:25:05.071Z,74.14
2018-03-26T17:26:05.064Z,74.24
2018-03-26T17:27:05.042Z,74.62
2018-03-26T17:28:05.020Z,74.52
2018-03-26T17:29:04.988Z,73.85
2018-03-26T17:30:04.972Z,74.20
2018-03-26T17:31:04.944Z,75.62
2018-03-26T17:32:04.925Z,75.43
2018-03-26T17:33:04.911Z,75.53
2018-03-26T17:34:04.879Z,75.62
2018-03-26T17:35:04.867Z,76.67
2018-03-26T17:36:04.837Z,77.24
2018-03-26T17:37:04.811Z,76.10
2018-03-26T17:38:04.790Z,76.39
2018-03-26T17:39:04.788Z,75.96
2018-03-26T17:40:04.748Z,76.06
2018-03-26T17:41:04.735Z,76.63
2018-03-26T17:42:04.740Z,75.96
2018-03-26T17:43:04.686Z,76.06
2018-03-26T17:44:04.671Z,76.63
2018-03-26T17:45:04.641Z,77.20
2018-03-26T17:46:04.622Z,77.11
2018-03-26T17:47:04.602Z,77.11
2018-03-26T17:48:04.577Z,77.77
2018-03-26T17:49:04.545Z,78.44
2018-03-26T17:50:04.539Z,78.53
2018-03-26T17:51:04.500Z,78.53
2018-03-26T17:52:04.490Z,78.97
2018-03-26T17:53:04.467Z,79.20
2018-03-26T17:54:04.431Z,79.39
2018-03-26T17:55:04.413Z,79.01
2018-03-26T17:56:04.397Z,79.39
2018-03-26T17:57:04.374Z,78.88
2018-03-26T17:58:04.338Z,79.58
2018-03-26T17:59:04.317Z,79.68
2018-03-26T18:00:04.300Z,79.92
2018-03-26T18:01:04.281Z,80.15
2018-03-26T18:02:04.264Z,79.73
2018-03-26T18:03:04.231Z,79.16
2018-03-26T18:04:04.201Z,79.92
2018-03-26T18:05:04.182Z,80.49
2018-03-26T18:06:04.165Z,80.87
2018-03-26T18:07:04.143Z,80.40
2018-03-26T18:08:04.120Z,80.87
2018-03-26T18:09:04.100Z,81.06
2018-03-26T18:10:04.069Z,81.06
2018-03-26T18:11:04.040Z,80.58
2018-03-26T18:12:04.028Z,80.77
2018-03-26T18:13:04.002Z,81.35
2018-03-26T18:14:03.977Z,81.82
2018-03-26T18:15:03.951Z,82.01
2018-03-26T18:16:03.923Z,81.63
2018-03-26T18:17:03.900Z,81.63
2018-03-26T18:18:03.874Z,81.92
2018-03-26T18:19:03.852Z,81.44
2018-03-26T18:20:03.833Z,81.63
2018-03-26T18:21:03.805Z,82.39
2018-03-26T18:22:03.785Z,81.87
2018-03-26T18:23:03.758Z,81.68
2018-03-26T18:24:03.748Z,82.26
2018-03-26T18:25:03.714Z,82.54
2018-03-26T18:26:03.692Z,82.45
2018-03-26T18:27:03.682Z,82.82
2018-03-26T18:28:03.644Z,83.20
2018-03-26T18:29:03.629Z,84.25
2018-03-26T18:30:03.596Z,84.06
2018-03-26T18:31:03.594Z,83.97
2018-03-26T18:32:03.560Z,84.06
2018-03-26T18:33:03.525Z,83.87
2018-03-26T18:34:03.516Z,84.16
2018-03-26T18:35:03.483Z,84.44
2018-03-26T18:36:03.454Z,84.25
2018-03-26T18:37:03.442Z,84.25
2018-03-26T18:38:03.408Z,85.11
2018-03-26T18:39:03.394Z,85.01
2018-03-26T18:40:03.360Z,85.77
2018-03-26T18:41:03.349Z,85.68
2018-03-26T18:42:03.329Z,86.15
2018-03-26T18:43:03.302Z,86.24
2018-03-26T18:44:03.268Z,86.34
2018-03-26T18:45:03.244Z,87.01
2018-03-26T18:46:03.217Z,86.82
2018-03-26T18:47:03.205Z,86.68
2018-03-26T18:48:03.183Z,87.43
2018-03-26T18:49:03.158Z,87.34
2018-03-26T18:50:03.139Z,88.01
2018-03-26T18:51:03.104Z,88.29
2018-03-26T18:52:03.082Z,87.62
2018-03-26T18:53:03.051Z,88.57
2018-03-26T18:54:03.043Z,88.48
2018-03-26T18:55:03.006Z,88.48
2018-03-26T18:56:02.995Z,89.14
2018-03-26T18:57:03.048Z,89.05
2018-03-26T18:58:02.932Z,89.62
2018-03-26T18:59:02.935Z,89.62
2018-03-26T19:00:02.928Z,89.33
2018-03-26T19:01:02.874Z,89.72
2018-03-26T19:02:02.843Z,89.72
2018-03-26T19:03:02.828Z,89.72
2018-03-26T19:04:02.790Z,89.62
2018-03-26T19:05:02.786Z,89.72
2018-03-26T19:06:02.758Z,90.09
2018-03-26T19:07:02.730Z,90.24
2018-03-26T19:08:02.696Z,91.04
2018-03-26T19:09:02.677Z,90.81
2018-03-26T19:10:02.660Z,90.90
2018-03-26T19:11:02.638Z,91.09
2018-03-26T19:12:02.601Z,91.66
2018-03-26T19:13:02.578Z,91.38
2018-03-26T19:14:02.554Z,91.56
2018-03-26T19:15:02.529Z,91.85
2018-03-26T19:16:02.518Z,91.85
2018-03-26T19:17:02.492Z,91.85
2018-03-26T19:18:02.454Z,92.71
2018-03-26T19:19:02.432Z,92.80
2018-03-26T19:20:02.416Z,92.90
2018-03-26T19:21:02.396Z,93.27
2018-03-26T19:22:02.364Z,92.90
2018-03-26T19:23:02.336Z,93.08
2018-03-26T19:24:02.322Z,92.90
2018-03-26T19:25:02.286Z,93.08
2018-03-26T19:26:02.277Z,93.08
2018-03-26T19:27:02.259Z,93.56
2018-03-26T19:28:02.216Z,92.90
2018-03-26T19:29:02.202Z,93.08
2018-03-26T19:30:02.180Z,92.80
2018-03-26T19:31:02.144Z,93.27
2018-03-26T19:32:02.119Z,92.52
2018-03-26T19:33:02.106Z,92.90
2018-03-26T19:34:02.071Z,93.27
2018-03-26T19:35:02.092Z,93.80
2018-03-26T19:36:02.024Z,92.90
2018-03-26T19:37:02.011Z,93.18
2018-03-26T19:38:01.987Z,92.71
2018-03-26T19:39:01.963Z,93.46
2018-03-26T19:40:01.928Z,93.56
2018-03-26T19:41:01.908Z,93.75
2018-03-26T19:42:01.890Z,93.56
2018-03-26T19:43:01.870Z,93.94
2018-03-26T19:44:01.832Z,93.56
2018-03-26T19:45:01.817Z,93.46
2018-03-26T19:46:01.780Z,93.84
2018-03-26T19:47:01.762Z,94.13
2018-03-26T19:48:01.736Z,94.65
2018-03-26T19:49:01.721Z,94.56
2018-03-26T19:50:01.688Z,93.80
2018-03-26T19:51:01.666Z,93.13
2018-03-26T19:52:01.639Z,92.56
2018-03-26T19:53:01.612Z,93.41
2018-03-26T19:54:01.610Z,92.75
2018-03-26T19:55:01.581Z,93.80
2018-03-26T19:56:01.547Z,93.70
2018-03-26T19:57:01.534Z,93.51
2018-03-26T19:58:01.513Z,93.32
2018-03-26T19:59:01.472Z,93.37
2018-03-26T20:00:01.468Z,92.94
2018-03-26T20:01:01.424Z,93.99
2018-03-26T20:02:01.438Z,93.80
2018-03-26T20:03:01.404Z,93.60
2018-03-26T20:04:01.351Z,93.70
2018-03-26T20:05:01.337Z,93.80
2018-03-26T20:06:01.303Z,94.08
2018-03-26T20:07:01.276Z,93.56
2018-03-26T20:08:01.255Z,93.80
2018-03-26T20:09:01.229Z,93.60
2018-03-26T20:10:01.207Z,93.70
2018-03-26T20:11:01.185Z,93.80
2018-03-26T20:12:01.168Z,93.75
2018-03-26T20:13:01.143Z,94.37
2018-03-26T20:14:01.108Z,94.74
2018-03-26T20:15:01.095Z,93.99
2018-03-26T20:16:01.071Z,93.84
2018-03-26T20:17:01.036Z,93.99
2018-03-26T20:18:01.013Z,93.94
2018-03-26T20:19:00.989Z,94.13
2018-03-26T20:20:00.978Z,94.46
2018-03-26T20:21:00.938Z,94.74
2018-03-26T20:22:00.928Z,94.60
2018-03-26T20:23:00.915Z,94.13
2018-03-26T20:24:00.882Z,94.42
2018-03-26T20:25:00.852Z,94.32
2018-03-26T20:26:00.819Z,95.17
2018-03-26T20:27:00.792Z,94.89
2018-03-26T20:28:00.781Z,95.27
2018-03-26T20:29:00.745Z,94.70
2018-03-26T20:30:00.724Z,94.60
2018-03-26T20:31:00.714Z,94.13
2018-03-26T20:32:00.677Z,94.32
2018-03-26T20:33:00.647Z,94.70
2018-03-26T20:34:00.670Z,94.98
2018-03-26T20:35:00.601Z,94.60
2018-03-26T20:36:00.575Z,94.03
2018-03-26T20:37:00.551Z,93.84
2018-03-26T20:38:00.528Z,94.03
2018-03-26T20:39:00.527Z,94.60
2018-03-26T20:40:00.495Z,94.98
2018-03-26T20:41:00.452Z,95.27
2018-03-26T20:42:00.432Z,95.17
2018-03-26T20:43:00.406Z,94.79
2018-03-26T20:44:00.397Z,94.70
2018-03-26T20:45:00.369Z,94.70
2018-03-26T20:46:00.370Z,94.60
2018-03-26T20:47:00.308Z,94.70
2018-03-26T20:48:00.294Z,94.32
2018-03-26T20:49:00.257Z,94.70
2018-03-26T20:50:00.259Z,94.70
2018-03-26T20:51:00.213Z,95.46
2018-03-26T20:52:00.188Z,95.07